sensor_id;sensor_type;location;lat;lon;timestamp;P1;durP1;ratioP1;P2;durP2;ratioP2
21806;SDS011;11065;50.786;7.840;2024-01-30T00:00:56;14.30;;;8.73;;
21806;SDS011;11065;50.786;7.840;2024-01-30T00:03:24;13.20;;;8.47;;
21806;SDS011;11065;50.786;7.840;2024-01-30T00:05:52;12.37;;;8.20;;
21806;SDS011;11065;50.786;7.840;2024-01-30T00:08:24;12.83;;;8.37;;
21806;SDS011;11065;50.786;7.840;2024-01-30T00:10:53;12.37;;;8.70;;
21806;SDS011;11065;50.786;7.840;2024-01-30T00:13:21;12.10;;;8.10;;
21806;SDS011;11065;50.786;7.840;2024-01-30T00:15:49;11.70;;;8.37;;
21806;SDS011;11065;50.786;7.840;2024-01-30T00:18:18;13.73;;;8.53;;
21806;SDS011;11065;50.786;7.840;2024-01-30T00:20:47;13.60;;;8.53;;
21806;SDS011;11065;50.786;7.840;2024-01-30T00:23:15;12.23;;;8.97;;
21806;SDS011;11065;50.786;7.840;2024-01-30T00:25:43;12.67;;;9.27;;
21806;SDS011;11065;50.786;7.840;2024-01-30T00:28:11;13.40;;;8.47;;
21806;SDS011;11065;50.786;7.840;2024-01-30T00:30:39;13.27;;;7.93;;
21806;SDS011;11065;50.786;7.840;2024-01-30T00:33:07;11.43;;;8.17;;
21806;SDS011;11065;50.786;7.840;2024-01-30T00:35:37;11.23;;;7.80;;
21806;SDS011;11065;50.786;7.840;2024-01-30T00:38:05;10.77;;;6.97;;
21806;SDS011;11065;50.786;7.840;2024-01-30T00:40:34;10.67;;;7.37;;
21806;SDS011;11065;50.786;7.840;2024-01-30T00:43:02;9.47;;;6.80;;
21806;SDS011;11065;50.786;7.840;2024-01-30T00:45:30;11.23;;;7.33;;
21806;SDS011;11065;50.786;7.840;2024-01-30T00:47:58;9.57;;;7.20;;
21806;SDS011;11065;50.786;7.840;2024-01-30T00:50:26;10.83;;;7.43;;
21806;SDS011;11065;50.786;7.840;2024-01-30T00:52:55;10.23;;;7.30;;
21806;SDS011;11065;50.786;7.840;2024-01-30T00:55:23;10.30;;;6.77;;
21806;SDS011;11065;50.786;7.840;2024-01-30T00:57:51;9.77;;;6.87;;
21806;SDS011;11065;50.786;7.840;2024-01-30T01:00:19;10.33;;;7.30;;
21806;SDS011;11065;50.786;7.840;2024-01-30T01:02:48;11.27;;;6.77;;
21806;SDS011;11065;50.786;7.840;2024-01-30T01:05:16;10.80;;;7.00;;
21806;SDS011;11065;50.786;7.840;2024-01-30T01:07:44;10.67;;;7.37;;
21806;SDS011;11065;50.786;7.840;2024-01-30T01:10:16;9.57;;;6.73;;
21806;SDS011;11065;50.786;7.840;2024-01-30T01:12:44;12.20;;;7.80;;
21806;SDS011;11065;50.786;7.840;2024-01-30T01:15:12;10.57;;;7.13;;
21806;SDS011;11065;50.786;7.840;2024-01-30T01:17:40;12.83;;;8.33;;
21806;SDS011;11065;50.786;7.840;2024-01-30T01:20:08;9.77;;;7.03;;
21806;SDS011;11065;50.786;7.840;2024-01-30T01:22:37;10.47;;;7.80;;
21806;SDS011;11065;50.786;7.840;2024-01-30T01:25:06;10.30;;;7.13;;
21806;SDS011;11065;50.786;7.840;2024-01-30T01:27:36;10.23;;;7.00;;
21806;SDS011;11065;50.786;7.840;2024-01-30T01:30:08;9.23;;;7.43;;
21806;SDS011;11065;50.786;7.840;2024-01-30T01:32:37;10.17;;;7.30;;
21806;SDS011;11065;50.786;7.840;2024-01-30T01:35:11;10.53;;;7.37;;
21806;SDS011;11065;50.786;7.840;2024-01-30T01:37:39;9.93;;;6.67;;
21806;SDS011;11065;50.786;7.840;2024-01-30T01:40:08;9.37;;;6.93;;
21806;SDS011;11065;50.786;7.840;2024-01-30T01:42:37;10.60;;;7.23;;
21806;SDS011;11065;50.786;7.840;2024-01-30T01:45:05;11.67;;;7.53;;
21806;SDS011;11065;50.786;7.840;2024-01-30T01:47:34;11.67;;;7.80;;
21806;SDS011;11065;50.786;7.840;2024-01-30T01:50:03;10.70;;;7.83;;
21806;SDS011;11065;50.786;7.840;2024-01-30T01:52:32;9.53;;;7.23;;
21806;SDS011;11065;50.786;7.840;2024-01-30T01:55:01;10.97;;;7.33;;
21806;SDS011;11065;50.786;7.840;2024-01-30T01:57:30;10.40;;;7.17;;
21806;SDS011;11065;50.786;7.840;2024-01-30T01:59:59;9.43;;;6.90;;
21806;SDS011;11065;50.786;7.840;2024-01-30T02:02:34;10.90;;;7.73;;
21806;SDS011;11065;50.786;7.840;2024-01-30T02:05:04;11.27;;;7.53;;
21806;SDS011;11065;50.786;7.840;2024-01-30T02:07:33;11.33;;;7.00;;
21806;SDS011;11065;50.786;7.840;2024-01-30T02:10:01;10.03;;;7.57;;
21806;SDS011;11065;50.786;7.840;2024-01-30T02:12:30;11.93;;;7.67;;
21806;SDS011;11065;50.786;7.840;2024-01-30T02:14:59;12.57;;;7.77;;
21806;SDS011;11065;50.786;7.840;2024-01-30T02:17:29;10.27;;;7.67;;
21806;SDS011;11065;50.786;7.840;2024-01-30T02:19:57;12.97;;;8.03;;
21806;SDS011;11065;50.786;7.840;2024-01-30T02:22:27;11.60;;;7.00;;
21806;SDS011;11065;50.786;7.840;2024-01-30T02:24:56;10.97;;;6.83;;
21806;SDS011;11065;50.786;7.840;2024-01-30T02:27:24;10.27;;;7.07;;
21806;SDS011;11065;50.786;7.840;2024-01-30T02:29:52;10.97;;;7.30;;
21806;SDS011;11065;50.786;7.840;2024-01-30T02:32:19;9.27;;;7.53;;
21806;SDS011;11065;50.786;7.840;2024-01-30T02:34:47;11.13;;;7.23;;
21806;SDS011;11065;50.786;7.840;2024-01-30T02:37:16;10.17;;;7.33;;
21806;SDS011;11065;50.786;7.840;2024-01-30T02:39:46;10.17;;;7.17;;
21806;SDS011;11065;50.786;7.840;2024-01-30T02:42:14;10.17;;;7.07;;
21806;SDS011;11065;50.786;7.840;2024-01-30T02:44:41;10.93;;;6.57;;
21806;SDS011;11065;50.786;7.840;2024-01-30T02:47:09;9.23;;;7.27;;
21806;SDS011;11065;50.786;7.840;2024-01-30T02:49:37;10.03;;;7.33;;
21806;SDS011;11065;50.786;7.840;2024-01-30T02:52:05;12.13;;;7.00;;
21806;SDS011;11065;50.786;7.840;2024-01-30T02:54:33;8.73;;;7.00;;
21806;SDS011;11065;50.786;7.840;2024-01-30T02:57:03;8.97;;;6.43;;
21806;SDS011;11065;50.786;7.840;2024-01-30T02:59:31;9.43;;;7.07;;
21806;SDS011;11065;50.786;7.840;2024-01-30T03:02:02;9.63;;;6.70;;
21806;SDS011;11065;50.786;7.840;2024-01-30T03:04:30;11.80;;;7.37;;
21806;SDS011;11065;50.786;7.840;2024-01-30T03:06:58;8.83;;;7.07;;
21806;SDS011;11065;50.786;7.840;2024-01-30T03:09:26;8.60;;;6.30;;
21806;SDS011;11065;50.786;7.840;2024-01-30T03:11:54;9.80;;;7.00;;
21806;SDS011;11065;50.786;7.840;2024-01-30T03:14:23;10.87;;;7.10;;
21806;SDS011;11065;50.786;7.840;2024-01-30T03:16:51;11.27;;;7.67;;
21806;SDS011;11065;50.786;7.840;2024-01-30T03:19:19;10.40;;;7.33;;
21806;SDS011;11065;50.786;7.840;2024-01-30T03:21:47;9.43;;;6.70;;
21806;SDS011;11065;50.786;7.840;2024-01-30T03:24:15;8.10;;;6.60;;
21806;SDS011;11065;50.786;7.840;2024-01-30T03:26:43;9.43;;;6.93;;
21806;SDS011;11065;50.786;7.840;2024-01-30T03:29:11;10.63;;;6.73;;
21806;SDS011;11065;50.786;7.840;2024-01-30T03:31:40;10.70;;;7.07;;
21806;SDS011;11065;50.786;7.840;2024-01-30T03:34:08;9.90;;;6.90;;
21806;SDS011;11065;50.786;7.840;2024-01-30T03:36:36;8.43;;;6.70;;
21806;SDS011;11065;50.786;7.840;2024-01-30T03:39:04;9.90;;;6.57;;
21806;SDS011;11065;50.786;7.840;2024-01-30T03:41:32;8.33;;;6.33;;
21806;SDS011;11065;50.786;7.840;2024-01-30T03:44:00;8.83;;;6.43;;
21806;SDS011;11065;50.786;7.840;2024-01-30T03:46:28;8.97;;;6.73;;
21806;SDS011;11065;50.786;7.840;2024-01-30T03:48:57;9.87;;;6.63;;
21806;SDS011;11065;50.786;7.840;2024-01-30T03:51:25;10.03;;;6.73;;
21806;SDS011;11065;50.786;7.840;2024-01-30T03:53:53;10.97;;;6.73;;
21806;SDS011;11065;50.786;7.840;2024-01-30T03:56:21;10.03;;;6.97;;
21806;SDS011;11065;50.786;7.840;2024-01-30T03:58:49;9.47;;;6.80;;
21806;SDS011;11065;50.786;7.840;2024-01-30T04:01:17;10.87;;;7.20;;
21806;SDS011;11065;50.786;7.840;2024-01-30T04:03:45;8.53;;;6.90;;
21806;SDS011;11065;50.786;7.840;2024-01-30T04:06:14;11.00;;;7.00;;
21806;SDS011;11065;50.786;7.840;2024-01-30T04:08:42;9.97;;;7.33;;
21806;SDS011;11065;50.786;7.840;2024-01-30T04:11:10;10.07;;;7.13;;
21806;SDS011;11065;50.786;7.840;2024-01-30T04:13:38;10.57;;;6.90;;
21806;SDS011;11065;50.786;7.840;2024-01-30T04:16:06;8.73;;;6.20;;
21806;SDS011;11065;50.786;7.840;2024-01-30T04:18:34;9.60;;;6.53;;
21806;SDS011;11065;50.786;7.840;2024-01-30T04:21:02;8.27;;;6.17;;
21806;SDS011;11065;50.786;7.840;2024-01-30T04:23:32;9.17;;;6.33;;
21806;SDS011;11065;50.786;7.840;2024-01-30T04:26:00;10.93;;;6.60;;
21806;SDS011;11065;50.786;7.840;2024-01-30T04:28:27;9.57;;;6.33;;
21806;SDS011;11065;50.786;7.840;2024-01-30T04:30:56;9.07;;;6.50;;
21806;SDS011;11065;50.786;7.840;2024-01-30T04:33:24;8.73;;;6.43;;
21806;SDS011;11065;50.786;7.840;2024-01-30T04:35:52;10.07;;;6.60;;
21806;SDS011;11065;50.786;7.840;2024-01-30T04:38:20;10.37;;;6.13;;
21806;SDS011;11065;50.786;7.840;2024-01-30T04:40:49;11.77;;;6.77;;
21806;SDS011;11065;50.786;7.840;2024-01-30T04:43:17;7.90;;;6.00;;
21806;SDS011;11065;50.786;7.840;2024-01-30T04:45:45;10.07;;;6.53;;
21806;SDS011;11065;50.786;7.840;2024-01-30T04:48:13;9.60;;;7.23;;
21806;SDS011;11065;50.786;7.840;2024-01-30T04:50:41;9.23;;;6.67;;
21806;SDS011;11065;50.786;7.840;2024-01-30T04:53:09;9.67;;;6.90;;
21806;SDS011;11065;50.786;7.840;2024-01-30T04:55:37;9.93;;;6.30;;
21806;SDS011;11065;50.786;7.840;2024-01-30T04:58:06;10.00;;;7.10;;
21806;SDS011;11065;50.786;7.840;2024-01-30T05:00:34;9.13;;;6.50;;
21806;SDS011;11065;50.786;7.840;2024-01-30T05:03:03;12.77;;;7.10;;
21806;SDS011;11065;50.786;7.840;2024-01-30T05:05:31;9.63;;;6.93;;
21806;SDS011;11065;50.786;7.840;2024-01-30T05:07:59;11.07;;;7.03;;
21806;SDS011;11065;50.786;7.840;2024-01-30T05:10:27;8.63;;;6.50;;
21806;SDS011;11065;50.786;7.840;2024-01-30T05:12:55;9.77;;;7.10;;
21806;SDS011;11065;50.786;7.840;2024-01-30T05:15:25;10.40;;;6.87;;
21806;SDS011;11065;50.786;7.840;2024-01-30T05:17:53;10.07;;;6.80;;
21806;SDS011;11065;50.786;7.840;2024-01-30T05:20:21;10.27;;;6.93;;
21806;SDS011;11065;50.786;7.840;2024-01-30T05:22:48;9.37;;;6.93;;
21806;SDS011;11065;50.786;7.840;2024-01-30T05:25:16;9.33;;;6.80;;
21806;SDS011;11065;50.786;7.840;2024-01-30T05:27:44;9.53;;;6.60;;
21806;SDS011;11065;50.786;7.840;2024-01-30T05:30:12;9.00;;;6.13;;
21806;SDS011;11065;50.786;7.840;2024-01-30T05:32:42;9.03;;;6.50;;
21806;SDS011;11065;50.786;7.840;2024-01-30T05:35:10;10.17;;;6.90;;
21806;SDS011;11065;50.786;7.840;2024-01-30T05:37:38;10.17;;;6.87;;
21806;SDS011;11065;50.786;7.840;2024-01-30T05:40:06;8.70;;;6.33;;
21806;SDS011;11065;50.786;7.840;2024-01-30T05:42:35;7.60;;;6.23;;
21806;SDS011;11065;50.786;7.840;2024-01-30T05:45:04;9.33;;;6.97;;
21806;SDS011;11065;50.786;7.840;2024-01-30T05:47:33;10.17;;;7.30;;
21806;SDS011;11065;50.786;7.840;2024-01-30T05:50:02;8.90;;;6.33;;
21806;SDS011;11065;50.786;7.840;2024-01-30T05:52:31;9.43;;;6.50;;
21806;SDS011;11065;50.786;7.840;2024-01-30T05:54:59;9.80;;;6.27;;
21806;SDS011;11065;50.786;7.840;2024-01-30T05:57:29;9.87;;;6.80;;
21806;SDS011;11065;50.786;7.840;2024-01-30T05:59:57;9.67;;;6.77;;
21806;SDS011;11065;50.786;7.840;2024-01-30T06:02:25;10.23;;;6.83;;
21806;SDS011;11065;50.786;7.840;2024-01-30T06:04:53;9.53;;;6.00;;
21806;SDS011;11065;50.786;7.840;2024-01-30T06:07:22;8.83;;;6.27;;
21806;SDS011;11065;50.786;7.840;2024-01-30T06:09:50;9.67;;;6.80;;
21806;SDS011;11065;50.786;7.840;2024-01-30T06:12:19;10.10;;;6.47;;
21806;SDS011;11065;50.786;7.840;2024-01-30T06:14:47;9.07;;;6.20;;
21806;SDS011;11065;50.786;7.840;2024-01-30T06:17:15;9.43;;;6.50;;
21806;SDS011;11065;50.786;7.840;2024-01-30T06:19:43;9.47;;;7.20;;
21806;SDS011;11065;50.786;7.840;2024-01-30T06:22:11;11.50;;;7.70;;
21806;SDS011;11065;50.786;7.840;2024-01-30T06:24:40;9.20;;;6.67;;
21806;SDS011;11065;50.786;7.840;2024-01-30T06:27:08;10.53;;;7.53;;
21806;SDS011;11065;50.786;7.840;2024-01-30T06:29:36;10.47;;;7.53;;
21806;SDS011;11065;50.786;7.840;2024-01-30T06:32:04;9.77;;;6.97;;
21806;SDS011;11065;50.786;7.840;2024-01-30T06:34:33;8.03;;;6.20;;
21806;SDS011;11065;50.786;7.840;2024-01-30T06:37:01;9.87;;;6.33;;
21806;SDS011;11065;50.786;7.840;2024-01-30T06:39:28;8.67;;;6.23;;
21806;SDS011;11065;50.786;7.840;2024-01-30T06:41:58;9.93;;;6.37;;
21806;SDS011;11065;50.786;7.840;2024-01-30T06:44:26;8.57;;;6.23;;
21806;SDS011;11065;50.786;7.840;2024-01-30T06:46:58;8.50;;;6.30;;
21806;SDS011;11065;50.786;7.840;2024-01-30T06:49:26;7.70;;;6.13;;
21806;SDS011;11065;50.786;7.840;2024-01-30T06:51:54;9.97;;;7.00;;
21806;SDS011;11065;50.786;7.840;2024-01-30T06:54:22;8.60;;;6.23;;
21806;SDS011;11065;50.786;7.840;2024-01-30T06:56:50;10.20;;;7.17;;
21806;SDS011;11065;50.786;7.840;2024-01-30T06:59:19;8.50;;;6.60;;
21806;SDS011;11065;50.786;7.840;2024-01-30T07:01:47;9.30;;;6.73;;
21806;SDS011;11065;50.786;7.840;2024-01-30T07:04:15;9.93;;;6.73;;
21806;SDS011;11065;50.786;7.840;2024-01-30T07:06:44;10.00;;;6.83;;
21806;SDS011;11065;50.786;7.840;2024-01-30T07:09:13;12.03;;;6.67;;
21806;SDS011;11065;50.786;7.840;2024-01-30T07:11:45;10.63;;;6.87;;
21806;SDS011;11065;50.786;7.840;2024-01-30T07:14:12;8.47;;;6.60;;
21806;SDS011;11065;50.786;7.840;2024-01-30T07:16:42;9.47;;;6.83;;
21806;SDS011;11065;50.786;7.840;2024-01-30T07:19:10;8.97;;;6.40;;
21806;SDS011;11065;50.786;7.840;2024-01-30T07:21:38;10.30;;;7.07;;
21806;SDS011;11065;50.786;7.840;2024-01-30T07:24:06;9.93;;;6.53;;
21806;SDS011;11065;50.786;7.840;2024-01-30T07:26:34;9.40;;;7.10;;
21806;SDS011;11065;50.786;7.840;2024-01-30T07:29:02;12.13;;;7.53;;
21806;SDS011;11065;50.786;7.840;2024-01-30T07:31:31;9.60;;;6.20;;
21806;SDS011;11065;50.786;7.840;2024-01-30T07:34:01;7.90;;;6.37;;
21806;SDS011;11065;50.786;7.840;2024-01-30T07:36:30;11.63;;;7.03;;
21806;SDS011;11065;50.786;7.840;2024-01-30T07:38:58;10.57;;;6.60;;
21806;SDS011;11065;50.786;7.840;2024-01-30T07:41:26;8.30;;;6.67;;
21806;SDS011;11065;50.786;7.840;2024-01-30T07:43:54;10.57;;;7.10;;
21806;SDS011;11065;50.786;7.840;2024-01-30T07:46:21;8.97;;;6.63;;
21806;SDS011;11065;50.786;7.840;2024-01-30T07:48:52;8.83;;;7.00;;
21806;SDS011;11065;50.786;7.840;2024-01-30T07:51:23;12.53;;;7.43;;
21806;SDS011;11065;50.786;7.840;2024-01-30T07:53:51;9.10;;;6.73;;
21806;SDS011;11065;50.786;7.840;2024-01-30T07:56:19;9.80;;;7.10;;
21806;SDS011;11065;50.786;7.840;2024-01-30T07:58:47;10.00;;;7.30;;
21806;SDS011;11065;50.786;7.840;2024-01-30T08:01:15;11.50;;;7.53;;
21806;SDS011;11065;50.786;7.840;2024-01-30T08:03:43;10.63;;;7.10;;
21806;SDS011;11065;50.786;7.840;2024-01-30T08:06:11;9.47;;;6.97;;
21806;SDS011;11065;50.786;7.840;2024-01-30T08:08:40;8.50;;;6.57;;
21806;SDS011;11065;50.786;7.840;2024-01-30T08:11:08;10.20;;;6.83;;
21806;SDS011;11065;50.786;7.840;2024-01-30T08:13:36;9.90;;;6.87;;
21806;SDS011;11065;50.786;7.840;2024-01-30T08:16:04;11.50;;;7.97;;
21806;SDS011;11065;50.786;7.840;2024-01-30T08:18:33;10.17;;;7.70;;
21806;SDS011;11065;50.786;7.840;2024-01-30T08:21:01;12.47;;;7.40;;
21806;SDS011;11065;50.786;7.840;2024-01-30T08:23:29;10.37;;;7.20;;
21806;SDS011;11065;50.786;7.840;2024-01-30T08:25:58;14.47;;;8.27;;
21806;SDS011;11065;50.786;7.840;2024-01-30T08:28:26;10.07;;;7.57;;
21806;SDS011;11065;50.786;7.840;2024-01-30T08:30:54;10.27;;;7.50;;
21806;SDS011;11065;50.786;7.840;2024-01-30T08:33:22;11.27;;;7.47;;
21806;SDS011;11065;50.786;7.840;2024-01-30T08:35:50;12.00;;;8.43;;
21806;SDS011;11065;50.786;7.840;2024-01-30T08:38:18;12.00;;;7.90;;
21806;SDS011;11065;50.786;7.840;2024-01-30T08:40:46;10.60;;;8.17;;
21806;SDS011;11065;50.786;7.840;2024-01-30T08:43:16;12.53;;;7.90;;
21806;SDS011;11065;50.786;7.840;2024-01-30T08:45:43;11.73;;;7.90;;
21806;SDS011;11065;50.786;7.840;2024-01-30T08:48:11;10.17;;;8.07;;
21806;SDS011;11065;50.786;7.840;2024-01-30T08:50:40;9.87;;;7.90;;
21806;SDS011;11065;50.786;7.840;2024-01-30T08:53:08;11.93;;;8.37;;
21806;SDS011;11065;50.786;7.840;2024-01-30T08:55:36;11.20;;;7.63;;
21806;SDS011;11065;50.786;7.840;2024-01-30T08:58:05;10.27;;;8.67;;
21806;SDS011;11065;50.786;7.840;2024-01-30T09:00:34;9.70;;;8.03;;
21806;SDS011;11065;50.786;7.840;2024-01-30T09:03:02;11.07;;;8.40;;
21806;SDS011;11065;50.786;7.840;2024-01-30T09:05:30;12.33;;;8.93;;
21806;SDS011;11065;50.786;7.840;2024-01-30T09:07:58;11.53;;;8.90;;
21806;SDS011;11065;50.786;7.840;2024-01-30T09:10:27;11.73;;;9.80;;
21806;SDS011;11065;50.786;7.840;2024-01-30T09:12:55;15.03;;;10.10;;
21806;SDS011;11065;50.786;7.840;2024-01-30T09:15:23;12.57;;;9.93;;
21806;SDS011;11065;50.786;7.840;2024-01-30T09:17:53;15.13;;;11.23;;
21806;SDS011;11065;50.786;7.840;2024-01-30T09:20:21;13.83;;;10.37;;
21806;SDS011;11065;50.786;7.840;2024-01-30T09:22:49;13.53;;;10.27;;
21806;SDS011;11065;50.786;7.840;2024-01-30T09:25:17;13.37;;;10.37;;
21806;SDS011;11065;50.786;7.840;2024-01-30T09:27:45;12.37;;;10.03;;
21806;SDS011;11065;50.786;7.840;2024-01-30T09:30:14;13.00;;;9.53;;
21806;SDS011;11065;50.786;7.840;2024-01-30T09:32:42;12.10;;;9.30;;
21806;SDS011;11065;50.786;7.840;2024-01-30T09:35:12;12.80;;;9.10;;
21806;SDS011;11065;50.786;7.840;2024-01-30T09:37:40;12.93;;;8.87;;
21806;SDS011;11065;50.786;7.840;2024-01-30T09:40:08;13.80;;;10.00;;
21806;SDS011;11065;50.786;7.840;2024-01-30T09:42:37;11.40;;;8.97;;
21806;SDS011;11065;50.786;7.840;2024-01-30T09:45:05;14.20;;;9.77;;
21806;SDS011;11065;50.786;7.840;2024-01-30T09:47:35;13.33;;;9.50;;
21806;SDS011;11065;50.786;7.840;2024-01-30T09:50:07;14.83;;;9.23;;
21806;SDS011;11065;50.786;7.840;2024-01-30T09:52:37;12.40;;;8.97;;
21806;SDS011;11065;50.786;7.840;2024-01-30T09:55:06;12.67;;;9.40;;
21806;SDS011;11065;50.786;7.840;2024-01-30T09:57:34;13.20;;;9.33;;
21806;SDS011;11065;50.786;7.840;2024-01-30T10:00:03;13.13;;;8.97;;
21806;SDS011;11065;50.786;7.840;2024-01-30T10:02:40;12.90;;;9.43;;
21806;SDS011;11065;50.786;7.840;2024-01-30T10:05:08;13.63;;;9.47;;
21806;SDS011;11065;50.786;7.840;2024-01-30T10:07:38;14.10;;;10.10;;
21806;SDS011;11065;50.786;7.840;2024-01-30T10:10:06;12.17;;;9.40;;
21806;SDS011;11065;50.786;7.840;2024-01-30T10:12:34;16.27;;;10.50;;
21806;SDS011;11065;50.786;7.840;2024-01-30T10:15:02;13.90;;;9.97;;
21806;SDS011;11065;50.786;7.840;2024-01-30T10:17:37;13.10;;;9.80;;
21806;SDS011;11065;50.786;7.840;2024-01-30T10:20:05;14.03;;;10.33;;
21806;SDS011;11065;50.786;7.840;2024-01-30T10:22:34;14.77;;;10.23;;
21806;SDS011;11065;50.786;7.840;2024-01-30T10:25:04;12.23;;;9.53;;
21806;SDS011;11065;50.786;7.840;2024-01-30T10:27:34;14.30;;;9.50;;
21806;SDS011;11065;50.786;7.840;2024-01-30T10:30:02;12.70;;;9.40;;
21806;SDS011;11065;50.786;7.840;2024-01-30T10:32:31;14.23;;;10.53;;
21806;SDS011;11065;50.786;7.840;2024-01-30T10:34:59;13.43;;;9.93;;
21806;SDS011;11065;50.786;7.840;2024-01-30T10:37:29;13.83;;;9.97;;
21806;SDS011;11065;50.786;7.840;2024-01-30T10:40:01;15.10;;;9.60;;
21806;SDS011;11065;50.786;7.840;2024-01-30T10:42:32;14.10;;;10.23;;
21806;SDS011;11065;50.786;7.840;2024-01-30T10:45:05;14.53;;;9.90;;
21806;SDS011;11065;50.786;7.840;2024-01-30T10:47:36;13.97;;;10.40;;
21806;SDS011;11065;50.786;7.840;2024-01-30T10:50:04;14.73;;;9.73;;
21806;SDS011;11065;50.786;7.840;2024-01-30T10:52:35;12.90;;;10.23;;
21806;SDS011;11065;50.786;7.840;2024-01-30T10:55:05;15.83;;;10.77;;
21806;SDS011;11065;50.786;7.840;2024-01-30T10:57:35;13.93;;;9.80;;
21806;SDS011;11065;50.786;7.840;2024-01-30T11:00:04;14.63;;;10.27;;
21806;SDS011;11065;50.786;7.840;2024-01-30T11:02:36;15.83;;;11.30;;
21806;SDS011;11065;50.786;7.840;2024-01-30T11:05:07;14.83;;;10.37;;
21806;SDS011;11065;50.786;7.840;2024-01-30T11:07:36;15.90;;;10.17;;
21806;SDS011;11065;50.786;7.840;2024-01-30T11:10:08;20.65;;;15.43;;
21806;SDS011;11065;50.786;7.840;2024-01-30T11:12:40;18.43;;;13.07;;
21806;SDS011;11065;50.786;7.840;2024-01-30T11:15:11;16.17;;;11.57;;
21806;SDS011;11065;50.786;7.840;2024-01-30T11:17:43;14.23;;;11.03;;
21806;SDS011;11065;50.786;7.840;2024-01-30T11:20:14;12.37;;;10.00;;
21806;SDS011;11065;50.786;7.840;2024-01-30T11:22:45;16.47;;;14.07;;
21806;SDS011;11065;50.786;7.840;2024-01-30T11:25:15;14.93;;;13.20;;
21806;SDS011;11065;50.786;7.840;2024-01-30T11:27:45;16.43;;;12.57;;
21806;SDS011;11065;50.786;7.840;2024-01-30T11:30:20;15.17;;;11.80;;
21806;SDS011;11065;50.786;7.840;2024-01-30T11:33:03;13.50;;;11.27;;
21806;SDS011;11065;50.786;7.840;2024-01-30T11:35:35;16.17;;;11.17;;
21806;SDS011;11065;50.786;7.840;2024-01-30T11:38:06;13.57;;;10.87;;
21806;SDS011;11065;50.786;7.840;2024-01-30T11:40:36;15.93;;;11.30;;
21806;SDS011;11065;50.786;7.840;2024-01-30T11:43:06;15.67;;;11.37;;
21806;SDS011;11065;50.786;7.840;2024-01-30T11:45:35;16.03;;;11.70;;
21806;SDS011;11065;50.786;7.840;2024-01-30T11:48:06;14.17;;;11.17;;
21806;SDS011;11065;50.786;7.840;2024-01-30T11:50:37;14.63;;;12.07;;
21806;SDS011;11065;50.786;7.840;2024-01-30T11:53:06;15.93;;;12.70;;
21806;SDS011;11065;50.786;7.840;2024-01-30T11:55:35;15.07;;;11.67;;
21806;SDS011;11065;50.786;7.840;2024-01-30T11:58:04;16.57;;;12.43;;
21806;SDS011;11065;50.786;7.840;2024-01-30T12:00:32;15.03;;;11.57;;
21806;SDS011;11065;50.786;7.840;2024-01-30T12:03:01;15.30;;;11.87;;
21806;SDS011;11065;50.786;7.840;2024-01-30T12:05:31;15.60;;;11.73;;
21806;SDS011;11065;50.786;7.840;2024-01-30T12:07:59;15.13;;;11.63;;
21806;SDS011;11065;50.786;7.840;2024-01-30T12:10:28;18.77;;;13.27;;
21806;SDS011;11065;50.786;7.840;2024-01-30T12:12:58;17.77;;;12.90;;
21806;SDS011;11065;50.786;7.840;2024-01-30T12:15:28;23.13;;;20.35;;
21806;SDS011;11065;50.786;7.840;2024-01-30T12:18:03;20.70;;;15.43;;
21806;SDS011;11065;50.786;7.840;2024-01-30T12:20:32;18.63;;;13.47;;
21806;SDS011;11065;50.786;7.840;2024-01-30T12:23:01;17.90;;;12.80;;
21806;SDS011;11065;50.786;7.840;2024-01-30T12:25:29;15.63;;;11.90;;
21806;SDS011;11065;50.786;7.840;2024-01-30T12:27:58;15.00;;;12.00;;
21806;SDS011;11065;50.786;7.840;2024-01-30T12:30:27;16.30;;;12.73;;
21806;SDS011;11065;50.786;7.840;2024-01-30T12:32:57;16.50;;;12.60;;
21806;SDS011;11065;50.786;7.840;2024-01-30T12:35:25;16.93;;;12.37;;
21806;SDS011;11065;50.786;7.840;2024-01-30T12:37:58;17.30;;;13.33;;
21806;SDS011;11065;50.786;7.840;2024-01-30T12:40:26;17.80;;;14.13;;
21806;SDS011;11065;50.786;7.840;2024-01-30T12:42:55;18.77;;;13.87;;
21806;SDS011;11065;50.786;7.840;2024-01-30T12:45:25;19.63;;;13.67;;
21806;SDS011;11065;50.786;7.840;2024-01-30T12:47:53;16.67;;;13.17;;
21806;SDS011;11065;50.786;7.840;2024-01-30T12:50:21;17.33;;;13.33;;
21806;SDS011;11065;50.786;7.840;2024-01-30T12:52:49;19.63;;;13.30;;
21806;SDS011;11065;50.786;7.840;2024-01-30T12:55:17;16.83;;;12.87;;
21806;SDS011;11065;50.786;7.840;2024-01-30T12:57:45;15.43;;;12.23;;
21806;SDS011;11065;50.786;7.840;2024-01-30T13:00:13;17.37;;;12.70;;
21806;SDS011;11065;50.786;7.840;2024-01-30T13:02:44;16.40;;;12.00;;
21806;SDS011;11065;50.786;7.840;2024-01-30T13:05:12;16.83;;;13.43;;
21806;SDS011;11065;50.786;7.840;2024-01-30T13:07:41;16.33;;;11.87;;
21806;SDS011;11065;50.786;7.840;2024-01-30T13:10:09;16.23;;;11.73;;
21806;SDS011;11065;50.786;7.840;2024-01-30T13:12:37;15.50;;;11.70;;
21806;SDS011;11065;50.786;7.840;2024-01-30T13:15:05;15.37;;;11.40;;
21806;SDS011;11065;50.786;7.840;2024-01-30T13:17:34;15.50;;;12.03;;
21806;SDS011;11065;50.786;7.840;2024-01-30T13:20:06;17.97;;;13.10;;
21806;SDS011;11065;50.786;7.840;2024-01-30T13:22:38;18.57;;;13.50;;
21806;SDS011;11065;50.786;7.840;2024-01-30T13:25:06;17.43;;;12.63;;
21806;SDS011;11065;50.786;7.840;2024-01-30T13:27:35;16.70;;;12.40;;
21806;SDS011;11065;50.786;7.840;2024-01-30T13:30:05;17.07;;;12.17;;
21806;SDS011;11065;50.786;7.840;2024-01-30T13:32:34;16.77;;;12.73;;
21806;SDS011;11065;50.786;7.840;2024-01-30T13:35:03;16.97;;;12.33;;
21806;SDS011;11065;50.786;7.840;2024-01-30T13:37:33;15.27;;;11.60;;
21806;SDS011;11065;50.786;7.840;2024-01-30T13:40:01;16.97;;;12.53;;
21806;SDS011;11065;50.786;7.840;2024-01-30T13:42:37;17.53;;;13.33;;
21806;SDS011;11065;50.786;7.840;2024-01-30T13:45:05;17.53;;;12.57;;
21806;SDS011;11065;50.786;7.840;2024-01-30T13:47:36;14.50;;;11.73;;
21806;SDS011;11065;50.786;7.840;2024-01-30T13:50:05;19.93;;;13.37;;
21806;SDS011;11065;50.786;7.840;2024-01-30T13:52:34;15.97;;;11.87;;
21806;SDS011;11065;50.786;7.840;2024-01-30T13:55:10;18.17;;;12.57;;
21806;SDS011;11065;50.786;7.840;2024-01-30T13:57:39;16.37;;;12.10;;
21806;SDS011;11065;50.786;7.840;2024-01-30T14:00:07;14.70;;;11.10;;
21806;SDS011;11065;50.786;7.840;2024-01-30T14:02:39;13.73;;;9.97;;
21806;SDS011;11065;50.786;7.840;2024-01-30T14:05:08;14.00;;;9.37;;
21806;SDS011;11065;50.786;7.840;2024-01-30T14:07:37;14.63;;;9.60;;
21806;SDS011;11065;50.786;7.840;2024-01-30T14:10:07;8.17;;;5.80;;
21806;SDS011;11065;50.786;7.840;2024-01-30T14:12:39;7.90;;;5.37;;
21806;SDS011;11065;50.786;7.840;2024-01-30T14:15:07;7.37;;;4.43;;
21806;SDS011;11065;50.786;7.840;2024-01-30T14:17:52;7.40;;;4.40;;
21806;SDS011;11065;50.786;7.840;2024-01-30T14:20:22;7.43;;;5.20;;
21806;SDS011;11065;50.786;7.840;2024-01-30T14:22:50;9.90;;;5.90;;
21806;SDS011;11065;50.786;7.840;2024-01-30T14:25:19;9.83;;;5.73;;
21806;SDS011;11065;50.786;7.840;2024-01-30T14:27:47;12.03;;;6.00;;
21806;SDS011;11065;50.786;7.840;2024-01-30T14:30:15;8.20;;;6.43;;
21806;SDS011;11065;50.786;7.840;2024-01-30T14:32:44;10.97;;;5.63;;
21806;SDS011;11065;50.786;7.840;2024-01-30T14:35:13;6.53;;;4.93;;
21806;SDS011;11065;50.786;7.840;2024-01-30T14:37:42;9.27;;;6.20;;
21806;SDS011;11065;50.786;7.840;2024-01-30T14:40:10;10.37;;;6.83;;
21806;SDS011;11065;50.786;7.840;2024-01-30T14:42:39;11.83;;;6.67;;
21806;SDS011;11065;50.786;7.840;2024-01-30T14:45:07;8.97;;;6.03;;